createdAt,value
2022-12-15T00:00:23.580Z,21.23
2022-12-15T00:03:09.680Z,21.90
2022-12-15T00:05:55.647Z,22.77
2022-12-15T00:08:41.753Z,28.00
2022-12-15T00:11:27.871Z,21.00
2022-12-15T00:14:14.114Z,19.63
2022-12-15T00:17:00.225Z,21.95
2022-12-15T00:19:46.500Z,22.65
2022-12-15T00:22:32.681Z,23.95
2022-12-15T00:25:19.015Z,26.77
2022-12-15T00:28:05.230Z,19.20
2022-12-15T00:30:52.539Z,21.30
2022-12-15T00:33:39.880Z,18.55
2022-12-15T00:36:26.330Z,21.20
2022-12-15T00:38:53.775Z,22.05
2022-12-15T00:41:21.166Z,20.92
2022-12-15T00:43:48.723Z,19.80
2022-12-15T00:46:35.127Z,21.83
2022-12-15T00:49:03.055Z,17.92
2022-12-15T00:51:49.035Z,23.75
2022-12-15T00:54:35.440Z,17.63
2022-12-15T00:57:21.445Z,20.70
2022-12-15T01:00:07.811Z,18.70
2022-12-15T01:02:53.841Z,21.40
2022-12-15T01:05:40.340Z,30.30
2022-12-15T01:08:26.416Z,19.83
2022-12-15T01:11:12.562Z,21.92
2022-12-15T01:13:58.783Z,20.10
2022-12-15T01:16:44.894Z,18.95
2022-12-15T01:19:30.827Z,21.63
2022-12-15T01:21:58.336Z,20.55
2022-12-15T01:24:25.928Z,18.48
2022-12-15T01:26:53.351Z,21.98
2022-12-15T01:29:20.843Z,25.33
2022-12-15T01:31:50.003Z,22.23
2022-12-15T01:34:20.134Z,20.85
2022-12-15T01:36:47.719Z,20.58
2022-12-15T01:39:15.952Z,20.75
2022-12-15T01:41:43.426Z,20.30
2022-12-15T01:44:21.782Z,22.38
2022-12-15T01:46:55.001Z,17.40
2022-12-15T01:49:29.358Z,21.13
2022-12-15T01:52:01.639Z,33.38
2022-12-15T01:54:49.919Z,21.75
2022-12-15T01:57:28.930Z,22.13
2022-12-15T02:00:03.837Z,22.70
2022-12-15T02:02:40.238Z,22.75
2022-12-15T02:05:10.299Z,24.10
2022-12-15T02:07:37.678Z,21.75
2022-12-15T02:10:10.159Z,21.67
2022-12-15T02:13:19.860Z,25.67
2022-12-15T02:16:01.192Z,23.10
2022-12-15T02:18:47.104Z,20.73
2022-12-15T02:21:48.501Z,19.20
2022-12-15T02:24:58.252Z,23.10
2022-12-15T02:27:45.851Z,20.88
2022-12-15T02:30:34.551Z,26.63
2022-12-15T02:33:28.175Z,22.88
2022-12-15T02:36:27.448Z,23.38
2022-12-15T02:38:54.911Z,23.02
2022-12-15T02:41:44.120Z,22.35
2022-12-15T02:44:18.453Z,20.92
2022-12-15T02:47:18.044Z,25.33
2022-12-15T02:50:42.069Z,19.17
2022-12-15T02:53:56.701Z,21.17
2022-12-15T02:57:07.260Z,22.27
2022-12-15T02:59:55.428Z,22.05
2022-12-15T03:02:28.116Z,25.30
2022-12-15T03:04:57.701Z,21.70
2022-12-15T03:07:27.981Z,20.58
2022-12-15T03:10:02.996Z,22.63
2022-12-15T03:12:30.430Z,20.35
2022-12-15T03:14:58.061Z,23.38
2022-12-15T03:17:25.454Z,21.25
2022-12-15T03:19:52.937Z,21.52
2022-12-15T03:22:20.469Z,22.15
2022-12-15T03:24:48.440Z,21.45
2022-12-15T03:27:15.912Z,21.35
2022-12-15T03:29:43.479Z,22.15
2022-12-15T03:32:10.934Z,21.38
2022-12-15T03:34:38.496Z,24.50
2022-12-15T03:37:05.977Z,21.85
2022-12-15T03:39:33.400Z,20.05
2022-12-15T03:42:00.964Z,23.50
2022-12-15T03:44:28.359Z,27.92
2022-12-15T03:47:01.303Z,23.98
2022-12-15T03:49:30.553Z,26.40
2022-12-15T03:51:57.939Z,23.80
2022-12-15T03:54:25.316Z,21.67
2022-12-15T03:56:52.827Z,20.48
2022-12-15T03:59:20.256Z,24.77
2022-12-15T04:01:49.246Z,21.10
2022-12-15T04:04:17.010Z,20.40
2022-12-15T04:06:44.392Z,22.55
2022-12-15T04:09:11.793Z,26.33
2022-12-15T04:11:39.229Z,21.95
2022-12-15T04:14:07.091Z,22.33
2022-12-15T04:16:34.599Z,24.17
2022-12-15T04:19:20.804Z,27.35
2022-12-15T04:21:49.359Z,20.35
2022-12-15T04:24:35.260Z,26.52
2022-12-15T04:27:21.502Z,22.73
2022-12-15T04:30:07.660Z,24.63
2022-12-15T04:32:53.969Z,23.50
2022-12-15T04:35:40.412Z,23.08
2022-12-15T04:38:26.573Z,20.90
2022-12-15T04:41:12.874Z,24.42
2022-12-15T04:43:59.086Z,22.23
2022-12-15T04:46:45.223Z,25.85
2022-12-15T04:49:31.254Z,21.08
2022-12-15T04:52:17.325Z,25.00
2022-12-15T04:55:03.477Z,23.80
2022-12-15T04:57:49.666Z,23.60
2022-12-15T05:00:35.856Z,22.20
2022-12-15T05:03:26.641Z,23.23
2022-12-15T05:06:12.951Z,20.92
2022-12-15T05:08:59.364Z,21.98
2022-12-15T05:11:45.204Z,23.65
2022-12-15T05:14:31.472Z,21.52
2022-12-15T05:17:17.518Z,21.70
2022-12-15T05:20:03.577Z,22.95
2022-12-15T05:22:49.739Z,23.02
2022-12-15T05:25:35.696Z,20.05
2022-12-15T05:28:25.401Z,27.15
2022-12-15T05:31:11.323Z,22.65
2022-12-15T05:33:38.762Z,23.85
2022-12-15T05:36:06.789Z,26.25
2022-12-15T05:38:34.193Z,22.67
2022-12-15T05:41:01.570Z,22.63
2022-12-15T05:43:29.636Z,22.50
2022-12-15T05:46:02.208Z,21.65
2022-12-15T05:48:29.902Z,21.88
2022-12-15T05:50:57.415Z,20.45
2022-12-15T05:53:24.846Z,23.20
2022-12-15T05:55:52.233Z,21.75
2022-12-15T05:58:19.676Z,21.83
2022-12-15T06:00:47.096Z,25.45
2022-12-15T06:03:14.603Z,19.60
2022-12-15T06:05:42.063Z,25.08
2022-12-15T06:08:09.464Z,22.50
2022-12-15T06:10:36.910Z,21.70
2022-12-15T06:13:05.304Z,24.25
2022-12-15T06:15:32.720Z,25.58
2022-12-15T06:18:00.123Z,23.45
2022-12-15T06:20:27.576Z,25.67
2022-12-15T06:22:54.991Z,29.23
2022-12-15T06:25:22.359Z,26.15
2022-12-15T06:27:49.802Z,24.60
2022-12-15T06:30:18.199Z,22.25
2022-12-15T06:32:45.590Z,29.35
2022-12-15T06:37:44.461Z,27.38
2022-12-15T06:40:11.928Z,24.48
2022-12-15T06:42:39.323Z,26.98
2022-12-15T06:45:08.190Z,23.88
2022-12-15T06:47:35.570Z,25.55
2022-12-15T06:50:03.052Z,23.90
2022-12-15T06:52:30.716Z,29.15
2022-12-15T06:54:58.200Z,26.85
2022-12-15T06:57:25.570Z,24.60
2022-12-15T06:59:52.998Z,19.23
2022-12-15T07:02:26.880Z,23.90
2022-12-15T07:04:56.227Z,24.45
2022-12-15T07:07:23.619Z,23.73
2022-12-15T07:09:51.133Z,27.90
2022-12-15T07:12:18.617Z,23.88
2022-12-15T07:14:51.522Z,23.35
2022-12-15T07:17:20.761Z,24.02
2022-12-15T07:19:48.134Z,24.77
2022-12-15T07:22:15.621Z,25.38
2022-12-15T07:24:43.596Z,24.23
2022-12-15T07:27:10.975Z,25.58
2022-12-15T07:29:38.351Z,28.65
2022-12-15T07:32:06.447Z,26.42
2022-12-15T07:34:34.027Z,26.98
2022-12-15T07:37:01.796Z,27.92
2022-12-15T07:39:29.425Z,24.58
2022-12-15T07:41:56.864Z,30.90
2022-12-15T07:44:24.265Z,27.05
2022-12-15T07:46:52.411Z,25.40
2022-12-15T07:49:20.476Z,32.80
2022-12-15T07:51:48.530Z,26.73
2022-12-15T07:54:16.317Z,30.02
2022-12-15T15:07:19.101Z,53.53
2022-12-15T15:43:46.712Z,7.38
2022-12-15T15:52:22.942Z,31.33
2022-12-15T15:54:53.453Z,33.83
2022-12-15T15:57:20.921Z,45.78
2022-12-15T15:59:48.690Z,41.97
2022-12-15T16:02:16.201Z,39.58
2022-12-15T16:04:44.478Z,40.63
2022-12-15T16:07:32.246Z,39.95
2022-12-15T16:09:59.873Z,41.22
2022-12-15T16:12:45.413Z,44.17
2022-12-15T16:15:16.739Z,42.40
2022-12-15T16:17:44.707Z,41.45
2022-12-15T16:20:14.927Z,46.35
2022-12-15T16:22:47.155Z,43.22
2022-12-15T16:25:26.131Z,42.15
2022-12-15T16:27:53.604Z,48.72
2022-12-15T16:30:26.059Z,47.13
2022-12-15T16:32:55.433Z,51.45
2022-12-15T16:35:26.483Z,50.85
2022-12-15T16:37:54.095Z,49.13
2022-12-15T16:40:27.526Z,47.00
2022-12-15T16:43:02.052Z,49.97
2022-12-15T16:45:31.234Z,50.17
2022-12-15T16:47:58.667Z,52.03
2022-12-15T16:50:34.173Z,51.42
2022-12-15T16:53:04.093Z,53.97
2022-12-15T16:55:39.921Z,51.78
2022-12-15T16:58:15.691Z,53.28
2022-12-15T17:00:44.841Z,51.45
2022-12-15T17:03:15.457Z,58.05
2022-12-15T17:05:49.324Z,56.43
2022-12-15T17:08:27.519Z,47.92
2022-12-15T17:10:55.858Z,57.58
2022-12-15T17:13:37.648Z,54.08
2022-12-15T17:16:07.454Z,56.08
2022-12-15T17:18:35.255Z,53.83
2022-12-15T17:21:10.728Z,58.28
2022-12-15T17:23:40.215Z,58.22
2022-12-15T17:26:25.881Z,55.97
2022-12-15T17:29:00.975Z,53.83
2022-12-15T17:31:34.632Z,53.30
2022-12-15T17:34:27.701Z,50.65
2022-12-15T17:37:02.146Z,50.15
2022-12-15T17:39:30.614Z,63.13
2022-12-15T17:42:00.507Z,151.50
2022-12-15T17:44:36.161Z,90.97
2022-12-15T17:47:07.922Z,63.05
2022-12-15T17:49:38.023Z,49.58
2022-12-15T17:52:34.206Z,67.85
2022-12-15T17:55:07.790Z,55.28
2022-12-15T17:57:35.220Z,52.63
2022-12-15T18:00:06.224Z,45.60
2022-12-15T18:02:33.935Z,51.35
2022-12-15T18:05:01.616Z,49.22
2022-12-15T18:07:29.041Z,44.65
2022-12-15T18:09:56.482Z,48.20
2022-12-15T18:12:27.201Z,49.33
2022-12-15T18:14:56.729Z,52.88
2022-12-15T18:17:24.635Z,133.18
2022-12-15T18:19:52.169Z,51.65
2022-12-15T18:22:24.329Z,43.95
2022-12-15T18:24:54.101Z,41.33
2022-12-15T18:27:26.746Z,46.10
2022-12-15T18:29:56.389Z,43.60
2022-12-15T18:32:27.331Z,46.47
2022-12-15T18:34:55.507Z,47.13
2022-12-15T18:37:25.089Z,48.35
2022-12-15T18:39:52.856Z,43.30
2022-12-15T18:42:21.832Z,47.10
2022-12-15T18:44:52.388Z,45.60
2022-12-15T18:47:23.763Z,44.78
2022-12-15T18:49:51.700Z,47.20
2022-12-15T18:52:26.485Z,49.25
2022-12-15T18:54:56.357Z,49.45
2022-12-15T18:57:36.381Z,50.88
2022-12-15T19:00:09.656Z,46.65
2022-12-15T19:02:37.317Z,41.65
2022-12-15T19:05:06.237Z,48.05
2022-12-15T19:07:35.855Z,44.20
2022-12-15T19:10:03.797Z,43.75
2022-12-15T19:12:31.234Z,44.67
2022-12-15T19:14:58.992Z,50.72
2022-12-15T19:17:46.289Z,47.30
2022-12-15T19:20:38.612Z,53.42
2022-12-15T19:23:07.266Z,47.47
2022-12-15T19:25:35.683Z,46.97
2022-12-15T19:28:03.321Z,49.17
2022-12-15T19:30:36.917Z,49.60
2022-12-15T19:33:07.799Z,46.22
2022-12-15T19:35:37.049Z,43.35
2022-12-15T19:38:06.476Z,43.28
2022-12-15T19:40:36.517Z,41.58
2022-12-15T19:43:05.393Z,47.05
2022-12-15T19:45:33.541Z,45.17
2022-12-15T19:48:01.132Z,45.00
2022-12-15T19:50:36.710Z,45.00
2022-12-15T19:53:24.187Z,43.65
2022-12-15T19:55:55.268Z,44.72
2022-12-15T19:58:32.917Z,44.78
2022-12-15T20:01:07.144Z,42.45
2022-12-15T20:03:36.614Z,42.78
2022-12-15T20:06:16.699Z,47.40
2022-12-15T20:08:47.430Z,42.20
2022-12-15T20:11:21.312Z,27.27
2022-12-15T20:13:50.604Z,47.17
2022-12-15T20:16:19.556Z,43.30
2022-12-15T20:18:50.362Z,46.97
2022-12-15T20:21:22.564Z,35.53
2022-12-15T20:24:07.733Z,51.53
2022-12-15T20:26:37.842Z,49.33
2022-12-15T20:29:20.712Z,48.53
2022-12-15T20:31:48.350Z,47.50
2022-12-15T20:34:17.554Z,43.42
2022-12-15T20:36:47.415Z,45.00
2022-12-15T20:39:29.442Z,45.28
2022-12-15T20:41:58.111Z,50.97
2022-12-15T20:44:25.666Z,49.53
2022-12-15T20:46:53.645Z,46.97
2022-12-15T20:49:22.733Z,50.20
2022-12-15T20:51:50.872Z,46.95
2022-12-15T20:54:21.733Z,49.22
2022-12-15T20:56:50.576Z,33.77
2022-12-15T20:59:18.595Z,49.67
2022-12-15T21:01:46.911Z,53.92
2022-12-15T21:04:26.024Z,52.83
2022-12-15T21:06:55.508Z,48.63
2022-12-15T21:09:24.203Z,45.53
2022-12-15T21:11:54.015Z,43.50
2022-12-15T21:14:24.146Z,44.97
2022-12-15T21:16:52.101Z,43.20
2022-12-15T21:19:21.215Z,47.92
2022-12-15T21:21:55.079Z,47.40
2022-12-15T21:24:27.183Z,47.20
2022-12-15T21:26:55.589Z,26.25
2022-12-15T21:29:27.535Z,45.63
2022-12-15T21:31:55.075Z,48.30
2022-12-15T21:34:23.749Z,36.55
2022-12-15T21:36:55.259Z,34.35
2022-12-15T21:39:33.546Z,32.90
2022-12-15T21:42:07.110Z,45.75
2022-12-15T21:44:35.691Z,42.78
2022-12-15T21:47:22.771Z,46.15
2022-12-15T21:49:50.435Z,35.22
2022-12-15T21:52:19.651Z,44.65
2022-12-15T21:54:47.160Z,35.05
2022-12-15T21:57:14.719Z,30.90
2022-12-15T21:59:42.971Z,34.05
2022-12-15T22:02:26.552Z,45.08
2022-12-15T22:04:54.826Z,37.80
2022-12-15T22:07:22.728Z,40.53
2022-12-15T22:09:50.388Z,34.65
2022-12-15T22:12:23.463Z,48.05
2022-12-15T22:17:22.220Z,37.08
2022-12-15T22:19:49.735Z,36.47
2022-12-15T22:22:17.195Z,31.98
2022-12-15T22:24:44.823Z,30.55
2022-12-15T22:27:22.822Z,41.75
2022-12-15T22:29:50.628Z,45.70
2022-12-15T22:32:18.208Z,35.35
2022-12-15T22:34:45.718Z,33.33
2022-12-15T22:37:13.229Z,33.20
2022-12-15T22:39:40.745Z,44.55
2022-12-15T22:42:17.138Z,33.05
2022-12-15T22:44:45.707Z,32.22
2022-12-15T22:47:13.464Z,35.05
2022-12-15T22:49:41.898Z,34.72
2022-12-15T22:52:17.907Z,36.88
2022-12-15T22:54:46.320Z,32.47
2022-12-15T22:57:27.106Z,33.38
2022-12-15T23:00:07.462Z,53.00
2022-12-15T23:02:40.791Z,36.40
2022-12-15T23:05:09.839Z,32.22
2022-12-15T23:07:37.615Z,45.85
2022-12-15T23:10:25.231Z,50.35
2022-12-15T23:12:54.492Z,32.63
2022-12-15T23:15:44.185Z,33.17
2022-12-15T23:18:12.433Z,34.08
2022-12-15T23:20:39.891Z,33.38
2022-12-15T23:23:08.396Z,47.58
2022-12-15T23:25:36.220Z,50.08
2022-12-15T23:28:04.062Z,50.67
2022-12-15T23:30:31.575Z,48.05
2022-12-15T23:32:59.052Z,45.63
2022-12-15T23:35:26.785Z,50.58
2022-12-15T23:37:54.393Z,52.08
2022-12-15T23:40:22.914Z,47.78
2022-12-15T23:42:51.701Z,51.13
2022-12-15T23:45:19.919Z,47.97
2022-12-15T23:47:47.486Z,48.78
2022-12-15T23:50:15.111Z,48.30
2022-12-15T23:52:42.621Z,49.10
2022-12-15T23:55:10.423Z,44.95
2022-12-15T23:57:39.274Z,49.20
